• Join FlightAware (Why Join?)
  • Login
  • US Flag 
03:43AM EST


 

Airport Tracker/Info


-or-


 

Live Flight TrackerFlight Track Log ✈ UAL4700 ✈ 23-Apr-2013 ✈ KEWR - KCLT

Flight Track Log - Related Links

Times and Time Zones

All times are in EDT time to prevent confusion due to time zone crossing. See the UAL4700 flight status page for this flight to view local times or setup timezone preferences in your user account.

Time Position Orientation Groundspeed Altitude Reporting Facility
EDT Latitude Longitude Course Direction KTS MPH feet Rate Location/Type
09:33PM 40.7167 -74.1333 246° West 171 197 2,100  Level New York TRACON
09:34PM 40.7500 -74.1833 311° West 249 287 4,000 1,800 Climbing New York TRACON
09:35PM 40.7333 -74.3000 259° West 268 308 5,700 2,160 Climbing New York TRACON
09:36PM 40.5333 -74.6059 250° West  Level FlightAware Approximate
09:36PM 40.7333 -74.3833 270° West 266 306 8,400  Level New York TRACON
09:37PM 40.4981 -74.7226 246° West  Level FlightAware Approximate
09:37PM 40.7167 -74.4833 258° West 287 330 10,400  Level New York TRACON
09:38PM 40.4597 -74.8376 246° West  Level FlightAware Approximate
09:39PM 40.6100 -74.6583 231° Southwest 332 382 12,600  Level New York Center
09:40PM 40.5483 -74.7642 233° Southwest 357 411 14,300 1,560 Climbing New York Center
09:41PM 40.4911 -74.8536 230° Southwest 357 411 15,700 1,560 Climbing New York Center
09:42PM 40.4267 -74.9642 233° Southwest 357 411 17,500 1,500 Climbing New York Center
09:43PM 40.3653 -75.0503 227° Southwest 362 417 18,800 1,380 Climbing New York Center
09:44PM 40.2992 -75.1469 228° Southwest 362 417 20,300 1,560 Climbing New York Center
09:45PM 40.2289 -75.2431 226° Southwest 367 422 21,900 1,320 Climbing New York Center
09:46PM 40.1561 -75.3444 227° Southwest 378 435 23,000 1,080 Climbing New York Center
09:47PM 40.0833 -75.4481 227° Southwest 383 441 24,100 1,380 Climbing New York Center
09:48PM 39.9994 -75.5672 227° Southwest 400 460 25,800 1,740 Climbing New York Center
09:49PM 39.9242 -75.6675 226° Southwest 400 460 27,700 1,560 Climbing New York Center
09:50PM 39.8533 -75.7708 228° Southwest 395 455 28,900 1,080 Climbing New York Center
09:51PM 39.7947 -75.8747 234° Southwest 390 449 29,900 900 Climbing New York Center
09:52PM 39.7253 -75.9831 230° Southwest 384 442 30,800 840 Climbing New York Center
09:54PM 39.5997 -76.1786 230° Southwest 399 459 32,500 900 Climbing Washington Center
09:55PM 39.5303 -76.2911 231° Southwest 404 465 33,400 900 Climbing Washington Center
09:56PM 39.4567 -76.4033 230° Southwest 404 465 34,300 960 Climbing Washington Center
09:57PM 39.3725 -76.5231 228° Southwest 404 465 35,400 840 Climbing Washington Center
09:58PM 39.3028 -76.6375 232° Southwest 414 476 36,000 300 Climbing Washington Center
09:59PM 39.2267 -76.7517 229° Southwest 414 476 36,000  Level Washington Center
10:00PM 39.1506 -76.8708 231° Southwest 428 493 36,000  Level Washington Center
10:01PM 39.0761 -76.9900 231° Southwest 428 493 36,000  Level Washington Center
10:02PM 38.9914 -77.0978 225° Southwest 428 493 36,000  Level Washington Center
10:03PM 38.8964 -77.1972 219° Southwest 433 498 36,000  Level Washington Center
10:04PM 38.8033 -77.2992 221° Southwest 443 510 36,000  Level Washington Center
10:05PM 38.7100 -77.4008 220° Southwest 448 516 36,000  Level Washington Center
10:06PM 38.6167 -77.5047 221° Southwest 448 516 36,000  Level Washington Center
10:07PM 38.5425 -77.5853 220° Southwest 443 510 36,000  Level Washington Center
10:08PM 38.4425 -77.6964 221° Southwest 436 502 36,000  Level Washington Center
10:09PM 38.3492 -77.7944 219° Southwest 436 502 36,000  Level Washington Center
10:10PM 38.2575 -77.8950 221° Southwest 436 502 36,000  Level Washington Center
10:11PM 38.1658 -77.9925 220° Southwest 436 502 36,000  Level Washington Center
10:12PM 38.0764 -78.0897 221° Southwest 436 502 36,000  Level Washington Center
10:13PM 37.9842 -78.2028 224° Southwest 429 494 36,000  Level Washington Center
10:14PM 37.9067 -78.3131 228° Southwest 422 486 36,000  Level Washington Center
10:15PM 37.8292 -78.4233 228° Southwest 422 486 36,000  Level Washington Center
10:16PM 37.7533 -78.5336 229° Southwest 422 486 36,000  Level Washington Center
10:17PM 37.6842 -78.6306 228° Southwest 422 486 36,000  Level Washington Center
10:18PM 37.6064 -78.7400 228° Southwest 422 486 36,000  Level Washington Center
10:19PM 37.5283 -78.8522 229° Southwest 427 491 36,000  Level Washington Center
10:20PM 37.4503 -78.9614 228° Southwest 427 491 36,000  Level Washington Center
10:21PM 37.3697 -79.0728 228° Southwest 427 491 36,000  Level Washington Center
10:22PM 37.2828 -79.1914 227° Southwest 427 491 36,000  Level Washington Center
10:23PM 37.1903 -79.2861 219° Southwest 427 491 36,000  Level Washington Center
10:24PM 37.0917 -79.3700 214° Southwest 434 499 36,000 -180 Level Washington Center
10:25PM 36.9889 -79.4533 213° Southwest 439 505 35,700 -900 Descending Washington Center
10:26PM 36.8922 -79.5342 214° Southwest 434 499 34,300 -1,560 Descending Washington Center
10:27PM 36.8086 -79.6025 213° Southwest 422 486 32,600 -1,920 Descending Washington Center
10:28PM 36.7100 -79.6856 214° Southwest 416 479 30,500 -2,340 Descending Washington Center
10:29PM 36.5244 -79.8356 213° Southwest 439 505 26,400 -2,520 Descending Atlanta Center
10:30PM 36.4308 -79.9075 212° Southwest 444 511 23,700 -2,220 Descending Atlanta Center
10:31PM 36.3314 -79.9900 214° Southwest 444 511 22,000 -1,260 Descending Atlanta Center
10:32PM 36.2342 -80.0747 215° Southwest 438 504 21,200 -1,620 Descending Atlanta Center
10:33PM 36.1408 -80.1539 214° Southwest 427 491 18,800 -2,460 Descending Atlanta Center
10:34PM 36.0431 -80.2356 214° Southwest 412 474 16,300 -2,280 Descending Atlanta Center
10:35PM 35.9578 -80.3089 215° Southwest 402 463 14,300 -1,680 Descending Atlanta Center
10:36PM 35.8786 -80.3764 215° Southwest 390 449 13,000 -900 Descending Atlanta Center
10:37PM 35.8114 -80.4358 216° Southwest 311 358 12,700 -1,080 Descending Atlanta Center
10:38PM 35.7483 -80.4897 215° Southwest 282 325 11,100 -1,140 Descending Atlanta Center
10:39PM 35.6769 -80.5442 212° Southwest 291 335 10,600 -900 Descending Atlanta Center
10:40PM 35.6094 -80.5928 210° Southwest 292 336 9,400 -1,320 Descending Atlanta Center
10:41PM 35.5622 -80.6256 209° Southwest 279 321 8,400 -1,500 Descending Atlanta Center
10:41PM 35.5233 -80.6500 207° Southwest 282 325 7,600 -1,620 Descending Atlanta Center
10:42PM 35.4928 -80.6744 213° Southwest 270 311 6,800 -1,500 Descending Atlanta Center
10:42PM 35.4600 -80.6961 208° Southwest 277 319 6,100 -1,560 Descending Atlanta Center
10:43PM 35.4067 -80.7314 208° Southwest 267 307 4,800 -1,380 Descending Atlanta Center
10:44PM 35.3644 -80.7575 207° Southwest 252 290 4,000 -780 Descending FAA TRACON SMA TRACON (SMA)
10:44PM 35.3461 -80.7697 209° Southwest 248 285 4,000  Level FAA TRACON SMA TRACON (SMA)
10:45PM 35.3258 -80.7892 218° Southwest 242 278 4,000 -360 Level FAA TRACON SMA TRACON (SMA)
10:45PM 35.3125 -80.8075 228° Southwest 232 267 3,800 -1,200 Descending FAA TRACON SMA TRACON (SMA)
10:45PM 35.2994 -80.8253 228° Southwest 230 265 3,200 -1,980 Descending FAA TRACON SMA TRACON (SMA)
10:46PM 35.2839 -80.8467 228° Southwest 214 246 2,500 -1,380 Descending FAA TRACON SMA TRACON (SMA)
10:46PM 35.2731 -80.8614 228° Southwest 186 214 2,300 -780 Descending FAA TRACON SMA TRACON (SMA)
10:46PM 35.2639 -80.8739 228° Southwest 160 184 2,000 -900 Descending FAA TRACON SMA TRACON (SMA)